createdAt,value
2022-12-13T00:00:15.316Z,7.07
2022-12-13T00:03:37.316Z,10.00
2022-12-13T00:06:39.798Z,7.83
2022-12-13T00:09:43.118Z,7.90
2022-12-13T00:12:45.279Z,9.10
2022-12-13T00:15:56.875Z,6.93
2022-12-13T00:19:00.926Z,7.00
2022-12-13T00:22:02.940Z,6.23
2022-12-13T00:25:05.427Z,6.87
2022-12-13T00:28:07.786Z,8.10
2022-12-13T00:31:44.650Z,6.90
2022-12-13T00:34:32.574Z,7.73
2022-12-13T00:37:34.820Z,7.20
2022-12-13T00:40:36.796Z,7.10
2022-12-13T00:43:39.540Z,6.70
2022-12-13T00:46:41.977Z,7.43
2022-12-13T00:49:44.125Z,7.00
2022-12-13T00:52:46.018Z,6.90
2022-12-13T00:55:48.189Z,6.87
2022-12-13T00:58:52.324Z,6.10
2022-12-13T01:01:54.759Z,6.47
2022-12-13T01:04:56.689Z,6.23
2022-12-13T01:07:58.913Z,6.93
2022-12-13T01:11:00.863Z,6.50
2022-12-13T01:14:03.257Z,7.63
2022-12-13T01:17:06.160Z,7.20
2022-12-13T01:20:09.447Z,5.97
2022-12-13T01:23:11.910Z,5.90
2022-12-13T01:26:17.818Z,5.53
2022-12-13T01:29:21.206Z,8.27
2022-12-13T01:32:23.371Z,5.47
2022-12-13T01:35:25.278Z,5.40
2022-12-13T01:38:27.465Z,5.63
2022-12-13T01:41:30.021Z,5.73
2022-12-13T01:45:02.952Z,5.93
2022-12-13T01:48:08.768Z,4.90
2022-12-13T01:51:14.878Z,5.30
2022-12-13T01:54:21.800Z,5.13
2022-12-13T01:57:25.098Z,5.30
2022-12-13T02:00:27.731Z,5.83
2022-12-13T02:03:30.083Z,5.13
2022-12-13T02:06:39.918Z,5.00
2022-12-13T02:09:42.778Z,6.73
2022-12-13T02:12:45.289Z,4.93
2022-12-13T02:16:31.077Z,5.03
2022-12-13T02:20:03.090Z,6.67
2022-12-13T02:23:26.581Z,4.93
2022-12-13T02:26:28.497Z,4.83
2022-12-13T02:29:45.673Z,4.80
2022-12-13T02:33:00.537Z,4.57
2022-12-13T02:36:43.230Z,5.27
2022-12-13T02:39:54.576Z,4.73
2022-12-13T02:43:02.432Z,4.60
2022-12-13T02:46:06.379Z,5.10
2022-12-13T02:49:10.778Z,4.77
2022-12-13T02:52:15.435Z,4.70
2022-12-13T02:55:28.338Z,4.87
2022-12-13T02:58:35.766Z,4.63
2022-12-13T03:02:10.868Z,4.53
2022-12-13T03:05:48.117Z,4.43
2022-12-13T03:09:11.901Z,5.20
2022-12-13T03:13:08.719Z,5.23
2022-12-13T03:16:23.871Z,4.03
2022-12-13T03:19:26.392Z,4.20
2022-12-13T03:22:28.614Z,4.23
2022-12-13T03:25:32.542Z,4.40
2022-12-13T03:28:35.690Z,4.67
2022-12-13T03:31:37.754Z,4.07
2022-12-13T03:34:44.866Z,4.10
2022-12-13T03:37:48.233Z,3.87
2022-12-13T03:40:57.489Z,3.93
2022-12-13T03:44:05.104Z,4.37
2022-12-13T03:47:07.283Z,5.17
2022-12-13T03:50:26.879Z,6.97
2022-12-13T03:53:34.180Z,4.40
2022-12-13T03:56:36.426Z,3.90
2022-12-13T03:59:39.045Z,4.47
2022-12-13T04:02:41.046Z,4.30
2022-12-13T04:05:43.491Z,4.70
2022-12-13T04:08:45.471Z,4.27
2022-12-13T04:12:06.439Z,4.77
2022-12-13T04:15:08.906Z,4.37
2022-12-13T04:18:11.145Z,5.03
2022-12-13T04:21:13.102Z,5.33
2022-12-13T04:24:16.370Z,5.13
2022-12-13T04:27:18.317Z,4.47
2022-12-13T04:30:20.646Z,4.73
2022-12-13T04:33:23.433Z,5.77
2022-12-13T04:36:30.985Z,4.57
2022-12-13T04:39:34.993Z,4.30
2022-12-13T04:42:37.191Z,5.27
2022-12-13T04:45:39.169Z,11.63
2022-12-13T04:48:41.458Z,5.23
2022-12-13T04:51:43.339Z,4.90
2022-12-13T04:54:56.092Z,5.60
2022-12-13T04:57:58.208Z,6.13
2022-12-13T05:01:00.478Z,5.70
2022-12-13T05:04:04.184Z,6.43
2022-12-13T05:07:06.394Z,5.70
2022-12-13T05:10:08.669Z,5.83
2022-12-13T05:13:10.889Z,5.07
2022-12-13T05:16:13.529Z,7.53
2022-12-13T05:19:15.740Z,6.27
2022-12-13T05:22:20.650Z,7.27
2022-12-13T05:25:24.959Z,7.90
2022-12-13T05:28:29.063Z,8.20
2022-12-13T05:31:31.459Z,9.97
2022-12-13T05:34:33.433Z,8.67
2022-12-13T05:37:35.794Z,5.67
2022-12-13T05:40:37.827Z,5.77
2022-12-13T05:43:42.926Z,5.77
2022-12-13T05:46:45.626Z,6.43
2022-12-13T05:49:47.896Z,5.63
2022-12-13T05:52:50.025Z,7.50
2022-12-13T05:55:52.198Z,6.80
2022-12-13T05:58:54.368Z,8.37
2022-12-13T06:01:57.082Z,7.30
2022-12-13T06:04:59.021Z,8.33
2022-12-13T06:08:01.639Z,6.57
2022-12-13T06:11:12.489Z,10.23
2022-12-13T06:14:33.877Z,6.20
2022-12-13T06:17:36.884Z,6.37
2022-12-13T06:20:39.053Z,9.80
2022-12-13T06:23:41.238Z,6.67
2022-12-13T06:26:45.816Z,8.33
2022-12-13T06:29:48.090Z,7.00
2022-12-13T06:32:50.488Z,7.60
2022-12-13T06:35:55.579Z,6.33
2022-12-13T06:39:06.083Z,7.03
2022-12-13T06:42:21.452Z,15.50
2022-12-13T06:45:25.656Z,14.27
2022-12-13T06:48:27.742Z,14.60
2022-12-13T06:51:32.400Z,23.33
2022-12-13T06:54:35.440Z,19.10
2022-12-13T06:57:37.610Z,9.77
2022-12-13T07:00:48.988Z,34.20
2022-12-13T07:03:51.749Z,26.13
2022-12-13T07:06:53.971Z,6.07
2022-12-13T07:09:56.418Z,6.17
2022-12-13T07:12:58.366Z,7.53
2022-12-13T07:16:01.390Z,5.47
2022-12-13T07:19:04.390Z,11.23
2022-12-13T07:22:25.475Z,7.37
2022-12-13T07:25:31.013Z,7.27
2022-12-13T07:28:38.219Z,4.90
2022-12-13T07:31:40.533Z,6.23
2022-12-13T07:34:42.877Z,5.53
2022-12-13T07:37:45.303Z,8.60
2022-12-13T07:40:47.645Z,6.10
2022-12-13T07:43:55.666Z,5.17
2022-12-13T07:46:58.249Z,6.37
2022-12-13T07:50:01.603Z,5.00
2022-12-13T07:53:08.441Z,8.13
2022-12-13T07:56:12.044Z,5.93
2022-12-13T07:59:15.852Z,10.60
2022-12-13T08:02:30.551Z,6.00
2022-12-13T08:05:38.635Z,5.40
2022-12-13T08:08:43.377Z,5.40
2022-12-13T08:11:45.610Z,5.77
2022-12-13T08:14:47.501Z,8.67
2022-12-13T08:18:00.940Z,8.87
2022-12-13T08:21:14.080Z,5.57
2022-12-13T08:24:29.195Z,4.83
2022-12-13T08:27:32.184Z,11.90
2022-12-13T08:30:34.341Z,7.93
2022-12-13T08:33:36.761Z,4.97
2022-12-13T08:36:38.967Z,5.43
2022-12-13T08:39:40.887Z,4.67
2022-12-13T08:42:45.640Z,4.40
2022-12-13T08:45:50.130Z,4.73
2022-12-13T08:48:54.103Z,8.00
2022-12-13T08:51:56.112Z,4.27
2022-12-13T08:54:58.368Z,4.23
2022-12-13T08:58:08.294Z,4.63
2022-12-13T09:01:11.371Z,5.40
2022-12-13T09:04:13.257Z,3.87
2022-12-13T09:07:15.480Z,7.10
2022-12-13T09:10:27.223Z,8.67
2022-12-13T09:13:43.413Z,8.60
2022-12-13T09:16:50.858Z,5.03
2022-12-13T09:19:58.073Z,4.13
2022-12-13T09:23:04.352Z,5.40
2022-12-13T09:26:07.169Z,4.47
2022-12-13T09:29:10.840Z,6.43
2022-12-13T09:32:13.986Z,6.50
2022-12-13T09:35:16.019Z,5.80
2022-12-13T09:38:18.550Z,5.37
2022-12-13T09:41:41.343Z,4.97
2022-12-13T09:45:02.243Z,7.40
2022-12-13T09:48:13.427Z,9.73
2022-12-13T09:51:28.268Z,6.80
2022-12-13T09:54:33.988Z,8.20
2022-12-13T09:57:36.681Z,5.20
2022-12-13T10:00:39.527Z,7.63
2022-12-13T10:03:46.159Z,5.67
2022-12-13T10:06:59.867Z,6.20
2022-12-13T10:10:04.915Z,5.87
2022-12-13T10:13:15.396Z,6.50
2022-12-13T10:16:49.394Z,7.90
2022-12-13T10:19:51.761Z,8.50
2022-12-13T10:23:31.163Z,8.23
2022-12-13T10:26:23.869Z,10.23
2022-12-13T10:29:27.252Z,7.70
2022-12-13T10:32:37.867Z,9.37
2022-12-13T10:35:41.424Z,7.63
2022-12-13T10:38:45.947Z,8.70
2022-12-13T10:41:48.235Z,9.77
2022-12-13T10:45:08.125Z,6.10
2022-12-13T10:48:22.244Z,7.23
2022-12-13T10:51:24.364Z,8.23
2022-12-13T10:54:38.681Z,6.73
2022-12-13T10:57:53.273Z,7.37
2022-12-13T11:01:28.625Z,8.50
2022-12-13T11:04:32.461Z,6.57
2022-12-13T11:07:34.673Z,7.33
2022-12-13T11:10:37.891Z,6.30
2022-12-13T11:13:52.940Z,7.27
2022-12-13T11:17:05.931Z,10.27
2022-12-13T11:20:19.529Z,7.50
2022-12-13T11:23:35.301Z,8.00
2022-12-13T11:26:42.814Z,8.17
2022-12-13T11:30:02.926Z,9.63
2022-12-13T11:33:48.596Z,8.03
2022-12-13T11:37:20.901Z,7.23
2022-12-13T11:40:40.262Z,10.60
2022-12-13T11:43:59.801Z,11.17
2022-12-13T11:47:07.230Z,12.47
2022-12-13T11:50:33.164Z,15.90
2022-12-13T11:53:57.632Z,13.00
2022-12-13T11:57:05.453Z,9.43
2022-12-13T12:00:17.739Z,14.47
2022-12-13T12:03:52.005Z,17.83
2022-12-13T12:07:24.575Z,25.00
2022-12-13T12:10:49.368Z,21.80
2022-12-13T12:14:10.118Z,19.13
2022-12-13T12:17:14.894Z,14.67
2022-12-13T12:20:25.192Z,15.70
2022-12-13T12:23:46.413Z,16.53
2022-12-13T12:27:22.712Z,11.23
2022-12-13T12:31:08.516Z,14.77
2022-12-13T12:34:19.030Z,11.13
2022-12-13T12:37:32.379Z,15.93
2022-12-13T12:41:15.008Z,17.03
2022-12-13T12:44:38.999Z,30.67
2022-12-13T12:51:54.888Z,17.23
2022-12-13T12:55:31.741Z,11.20
2022-12-13T12:59:12.515Z,12.10
2022-12-13T13:02:27.463Z,10.37
2022-12-13T13:05:32.784Z,13.50
2022-12-13T13:08:46.729Z,12.53
2022-12-13T13:11:51.192Z,14.37
2022-12-13T13:15:00.693Z,12.13
2022-12-13T13:18:02.630Z,10.23
2022-12-13T13:21:23.460Z,10.67
2022-12-13T13:24:27.419Z,16.07
2022-12-13T13:27:30.733Z,9.93
2022-12-13T13:30:33.710Z,9.80
2022-12-13T13:33:50.293Z,10.13
2022-12-13T13:36:56.426Z,14.93
2022-12-13T13:40:29.788Z,9.77
2022-12-13T13:43:33.447Z,14.47
2022-12-13T13:47:14.961Z,11.13
2022-12-13T13:50:57.796Z,11.40
2022-12-13T13:54:28.233Z,10.47
2022-12-13T14:01:13.955Z,6.90
2022-12-13T14:04:38.190Z,9.63
2022-12-13T14:07:49.648Z,13.03
2022-12-13T14:11:04.320Z,14.53
2022-12-13T14:14:39.097Z,21.07
2022-12-13T14:17:47.239Z,17.03
2022-12-13T14:21:14.073Z,15.03
2022-12-13T14:24:31.264Z,11.27
2022-12-13T14:28:02.317Z,13.83
2022-12-13T14:31:04.479Z,11.40
2022-12-13T14:34:07.939Z,10.53
2022-12-13T14:37:23.796Z,10.10
2022-12-13T14:40:28.104Z,11.13
2022-12-13T14:43:34.917Z,12.70
2022-12-13T14:46:37.260Z,14.17
2022-12-13T14:49:48.720Z,16.20
2022-12-13T14:52:51.995Z,18.20
2022-12-13T14:56:27.660Z,14.07
2022-12-13T14:59:33.261Z,21.10
2022-12-13T15:02:35.249Z,23.30
2022-12-13T15:05:50.468Z,16.10
2022-12-13T15:08:54.002Z,20.10
2022-12-13T15:12:15.095Z,21.47
2022-12-13T15:15:31.468Z,21.90
2022-12-13T15:18:34.715Z,25.10
2022-12-13T15:21:37.825Z,15.73
2022-12-13T15:24:41.652Z,18.70
2022-12-13T15:27:48.541Z,24.43
2022-12-13T15:30:51.281Z,20.20
2022-12-13T15:33:53.522Z,27.20
2022-12-13T15:37:28.046Z,22.93
2022-12-13T15:40:31.849Z,24.40
2022-12-13T15:43:43.472Z,22.00
2022-12-13T15:46:49.936Z,21.73
2022-12-13T15:49:59.786Z,20.00
2022-12-13T15:53:28.465Z,26.13
2022-12-13T15:56:36.767Z,24.43
2022-12-13T15:59:38.770Z,24.43
2022-12-13T16:02:53.130Z,26.33
2022-12-13T16:05:57.160Z,24.93
2022-12-13T16:09:05.150Z,29.27
2022-12-13T16:12:07.571Z,30.43
2022-12-13T16:15:29.309Z,30.73
2022-12-13T16:18:41.504Z,28.40
2022-12-13T16:21:43.796Z,32.63
2022-12-13T16:24:45.658Z,37.10
2022-12-13T16:27:48.935Z,35.67
2022-12-13T16:30:53.784Z,37.50
2022-12-13T16:33:56.061Z,38.60
2022-12-13T16:36:59.675Z,43.83
2022-12-13T16:40:30.296Z,43.70
2022-12-13T16:43:35.217Z,35.03
2022-12-13T16:47:12.766Z,43.83
2022-12-13T16:50:09.686Z,32.00
2022-12-13T16:53:17.185Z,28.40
2022-12-13T16:56:21.840Z,25.90
2022-12-13T16:59:26.511Z,27.63
2022-12-13T17:02:28.461Z,23.53
2022-12-13T17:05:31.285Z,26.73
2022-12-13T17:08:33.920Z,25.17
2022-12-13T17:11:37.312Z,35.27
2022-12-13T17:14:39.382Z,23.30
2022-12-13T17:17:44.127Z,24.60
2022-12-13T17:20:47.008Z,28.60
2022-12-13T17:24:02.815Z,21.90
2022-12-13T17:27:04.730Z,30.70
2022-12-13T17:30:09.194Z,40.30
2022-12-13T17:33:13.232Z,35.90
2022-12-13T17:36:16.027Z,41.77
2022-12-13T17:39:18.016Z,60.50
2022-12-13T17:42:20.350Z,62.17
2022-12-13T17:45:33.971Z,66.13
2022-12-13T17:49:11.019Z,63.07
2022-12-13T17:52:19.077Z,59.77
2022-12-13T17:59:12.219Z,61.33
2022-12-13T18:02:41.465Z,77.03
2022-12-13T18:06:24.328Z,80.93
2022-12-13T18:09:41.821Z,83.10
2022-12-13T18:12:50.016Z,64.93
2022-12-13T18:15:55.397Z,69.43
2022-12-13T18:23:32.846Z,69.43
2022-12-13T18:26:53.614Z,77.93
2022-12-13T18:29:56.007Z,69.80
2022-12-13T18:32:58.731Z,77.70
2022-12-13T18:36:01.197Z,78.13
2022-12-13T18:39:04.370Z,70.77
2022-12-13T18:42:07.287Z,72.63
2022-12-13T18:45:09.769Z,72.23
2022-12-13T18:48:12.719Z,80.23
2022-12-13T18:51:14.736Z,74.07
2022-12-13T18:54:16.935Z,78.30
2022-12-13T18:57:19.501Z,86.63
2022-12-13T19:00:21.808Z,86.47
2022-12-13T19:03:25.478Z,82.07
2022-12-13T19:06:28.593Z,76.63
2022-12-13T19:09:35.558Z,75.40
2022-12-13T19:12:40.550Z,63.07
2022-12-13T19:15:42.542Z,77.30
2022-12-13T19:18:44.877Z,66.90
2022-12-13T19:21:46.937Z,70.40
2022-12-13T19:24:49.256Z,80.83
2022-12-13T19:27:51.797Z,79.60
2022-12-13T19:30:54.004Z,76.63
2022-12-13T19:33:56.716Z,77.87
2022-12-13T19:37:04.486Z,74.77
2022-12-13T19:40:09.777Z,75.20
2022-12-13T19:43:13.211Z,70.53
2022-12-13T19:46:17.336Z,81.73
2022-12-13T19:49:19.589Z,76.77
2022-12-13T19:52:21.441Z,73.10
2022-12-13T19:55:23.935Z,77.43
2022-12-13T19:58:26.690Z,72.07
2022-12-13T20:01:28.971Z,72.97
2022-12-13T20:04:31.124Z,82.27
2022-12-13T20:07:33.348Z,104.73
2022-12-13T20:10:36.596Z,135.90
2022-12-13T20:13:41.352Z,136.50
2022-12-13T20:16:43.713Z,145.60
2022-12-13T20:19:50.916Z,164.77
2022-12-13T20:22:54.771Z,158.97
2022-12-13T20:26:06.440Z,139.10
2022-12-13T20:29:08.735Z,126.90
2022-12-13T20:32:10.985Z,118.90
2022-12-13T20:35:13.030Z,112.80
2022-12-13T20:38:15.269Z,120.03
2022-12-13T20:41:17.156Z,120.37
2022-12-13T20:44:19.613Z,125.30
2022-12-13T20:47:21.496Z,110.80
2022-12-13T20:50:23.763Z,96.93
2022-12-13T20:53:25.869Z,120.30
2022-12-13T20:56:31.761Z,139.37
2022-12-13T20:59:33.718Z,129.70
2022-12-13T21:02:42.203Z,100.87
2022-12-13T21:05:47.669Z,96.80
2022-12-13T21:08:52.808Z,88.13
2022-12-13T21:11:58.460Z,97.80
2022-12-13T21:15:04.152Z,88.17
2022-12-13T21:18:09.120Z,104.37
2022-12-13T21:21:11.728Z,101.47
2022-12-13T21:24:18.388Z,85.27
2022-12-13T21:27:25.079Z,84.03
2022-12-13T21:30:27.019Z,88.20
2022-12-13T21:33:30.121Z,76.27
2022-12-13T21:36:34.667Z,85.67
2022-12-13T21:39:41.650Z,109.03
2022-12-13T21:42:45.736Z,125.90
2022-12-13T21:45:49.831Z,124.60
2022-12-13T21:48:53.041Z,139.73
2022-12-13T21:51:58.877Z,147.97
2022-12-13T21:55:30.047Z,126.40
2022-12-13T21:58:45.853Z,202.43
2022-12-13T22:02:13.494Z,222.83
2022-12-13T22:05:16.010Z,204.63
2022-12-13T22:08:18.565Z,191.60
2022-12-13T22:11:22.691Z,181.63
2022-12-13T22:14:25.114Z,187.13
2022-12-13T22:17:35.260Z,174.77
2022-12-13T22:20:38.153Z,167.17
2022-12-13T22:23:41.804Z,164.67
2022-12-13T22:26:44.725Z,158.17
2022-12-13T22:29:46.871Z,174.07
2022-12-13T22:32:48.990Z,169.53
2022-12-13T22:35:51.557Z,131.87
2022-12-13T22:38:53.540Z,134.07
2022-12-13T22:41:55.761Z,109.90
2022-12-13T22:44:57.664Z,102.40
2022-12-13T22:47:59.793Z,99.43
2022-12-13T22:51:03.357Z,102.13
2022-12-13T22:54:05.712Z,100.03
2022-12-13T22:57:07.837Z,99.40
2022-12-13T23:00:10.593Z,105.37
2022-12-13T23:03:12.636Z,102.17
2022-12-13T23:06:19.014Z,111.03
2022-12-13T23:09:21.170Z,103.13
2022-12-13T23:12:42.080Z,99.30
2022-12-13T23:15:49.169Z,101.40
2022-12-13T23:19:01.349Z,93.60
2022-12-13T23:22:12.797Z,88.47
2022-12-13T23:25:15.515Z,87.27
2022-12-13T23:28:17.741Z,94.70
2022-12-13T23:31:20.720Z,97.63
2022-12-13T23:34:22.643Z,88.63
2022-12-13T23:37:24.893Z,90.00
2022-12-13T23:40:26.832Z,80.37
2022-12-13T23:43:33.673Z,73.03
2022-12-13T23:46:36.354Z,75.40
2022-12-13T23:49:38.524Z,70.97
2022-12-13T23:52:40.438Z,69.67
2022-12-13T23:55:42.726Z,72.40
2022-12-13T23:58:51.103Z,68.93
